sensor_id;sensor_type;location;lat;lon;timestamp;temperature;humidity
40996;DHT22;26723;57.478;12.066;2023-04-24T00:00:16;8.10;99.90
40996;DHT22;26723;57.478;12.066;2023-04-24T00:03:25;8.10;99.90
40996;DHT22;26723;57.478;12.066;2023-04-24T00:06:36;8.10;99.90
40996;DHT22;26723;57.478;12.066;2023-04-24T00:09:45;8.00;99.90
40996;DHT22;26723;57.478;12.066;2023-04-24T00:12:54;8.00;99.90
40996;DHT22;26723;57.478;12.066;2023-04-24T00:16:02;7.90;99.90
40996;DHT22;26723;57.478;12.066;2023-04-24T00:19:11;7.80;99.90
40996;DHT22;26723;57.478;12.066;2023-04-24T00:22:21;7.80;99.90
40996;DHT22;26723;57.478;12.066;2023-04-24T00:25:30;7.80;99.90
40996;DHT22;26723;57.478;12.066;2023-04-24T00:28:39;7.80;99.90
40996;DHT22;26723;57.478;12.066;2023-04-24T00:31:47;7.80;99.90
40996;DHT22;26723;57.478;12.066;2023-04-24T00:34:56;7.80;99.90
40996;DHT22;26723;57.478;12.066;2023-04-24T00:38:06;7.80;99.90
40996;DHT22;26723;57.478;12.066;2023-04-24T00:41:15;7.80;99.90
40996;DHT22;26723;57.478;12.066;2023-04-24T00:44:23;7.80;99.90
40996;DHT22;26723;57.478;12.066;2023-04-24T00:47:33;7.90;99.90
40996;DHT22;26723;57.478;12.066;2023-04-24T00:50:42;7.90;99.90
40996;DHT22;26723;57.478;12.066;2023-04-24T00:53:52;7.90;99.90
40996;DHT22;26723;57.478;12.066;2023-04-24T00:57:00;7.80;99.90
40996;DHT22;26723;57.478;12.066;2023-04-24T01:00:31;7.80;99.90
40996;DHT22;26723;57.478;12.066;2023-04-24T01:03:40;7.90;99.90
40996;DHT22;26723;57.478;12.066;2023-04-24T01:06:50;7.90;99.90
40996;DHT22;26723;57.478;12.066;2023-04-24T01:10:01;7.90;99.90
40996;DHT22;26723;57.478;12.066;2023-04-24T01:13:09;7.80;99.90
40996;DHT22;26723;57.478;12.066;2023-04-24T01:16:18;7.80;99.90
40996;DHT22;26723;57.478;12.066;2023-04-24T01:19:27;7.80;99.90
40996;DHT22;26723;57.478;12.066;2023-04-24T01:22:38;7.80;99.90
40996;DHT22;26723;57.478;12.066;2023-04-24T01:25:46;7.90;99.90
40996;DHT22;26723;57.478;12.066;2023-04-24T01:28:55;7.90;99.90
40996;DHT22;26723;57.478;12.066;2023-04-24T01:32:04;7.80;99.90
40996;DHT22;26723;57.478;12.066;2023-04-24T01:35:13;7.80;99.90
40996;DHT22;26723;57.478;12.066;2023-04-24T01:38:23;7.90;99.90
40996;DHT22;26723;57.478;12.066;2023-04-24T01:41:32;7.90;99.90
40996;DHT22;26723;57.478;12.066;2023-04-24T01:44:40;7.90;99.90
40996;DHT22;26723;57.478;12.066;2023-04-24T01:47:50;7.90;99.90
40996;DHT22;26723;57.478;12.066;2023-04-24T01:50:58;8.00;99.90
40996;DHT22;26723;57.478;12.066;2023-04-24T01:54:08;8.00;99.90
40996;DHT22;26723;57.478;12.066;2023-04-24T01:57:17;8.00;99.90
40996;DHT22;26723;57.478;12.066;2023-04-24T02:00:25;8.00;99.90
40996;DHT22;26723;57.478;12.066;2023-04-24T02:03:34;8.00;99.90
40996;DHT22;26723;57.478;12.066;2023-04-24T02:06:43;8.00;99.90
40996;DHT22;26723;57.478;12.066;2023-04-24T02:09:52;7.90;99.90
40996;DHT22;26723;57.478;12.066;2023-04-24T02:13:02;7.80;99.90
40996;DHT22;26723;57.478;12.066;2023-04-24T02:16:11;7.80;99.90
40996;DHT22;26723;57.478;12.066;2023-04-24T02:19:20;7.70;99.90
40996;DHT22;26723;57.478;12.066;2023-04-24T02:22:30;7.60;99.90
40996;DHT22;26723;57.478;12.066;2023-04-24T02:25:42;7.60;99.90
40996;DHT22;26723;57.478;12.066;2023-04-24T02:28:51;7.70;99.90
40996;DHT22;26723;57.478;12.066;2023-04-24T02:32:00;7.80;99.90
40996;DHT22;26723;57.478;12.066;2023-04-24T02:35:09;7.90;99.90
40996;DHT22;26723;57.478;12.066;2023-04-24T02:38:17;7.90;99.90
40996;DHT22;26723;57.478;12.066;2023-04-24T02:41:27;7.90;99.90
40996;DHT22;26723;57.478;12.066;2023-04-24T02:44:38;7.90;99.90
40996;DHT22;26723;57.478;12.066;2023-04-24T02:47:47;7.90;99.90
40996;DHT22;26723;57.478;12.066;2023-04-24T02:50:56;7.90;99.90
40996;DHT22;26723;57.478;12.066;2023-04-24T02:54:05;8.00;99.90
40996;DHT22;26723;57.478;12.066;2023-04-24T02:57:15;8.00;99.90
40996;DHT22;26723;57.478;12.066;2023-04-24T03:00:23;8.10;99.90
40996;DHT22;26723;57.478;12.066;2023-04-24T03:03:32;8.10;99.90
40996;DHT22;26723;57.478;12.066;2023-04-24T03:06:40;8.00;99.90
40996;DHT22;26723;57.478;12.066;2023-04-24T03:09:49;8.00;99.90
40996;DHT22;26723;57.478;12.066;2023-04-24T03:12:59;8.00;99.90
40996;DHT22;26723;57.478;12.066;2023-04-24T03:16:07;8.00;99.90
40996;DHT22;26723;57.478;12.066;2023-04-24T03:19:16;7.90;99.90
40996;DHT22;26723;57.478;12.066;2023-04-24T03:22:46;8.00;99.90
40996;DHT22;26723;57.478;12.066;2023-04-24T03:25:55;7.90;99.90
40996;DHT22;26723;57.478;12.066;2023-04-24T03:29:05;7.80;99.90
40996;DHT22;26723;57.478;12.066;2023-04-24T03:32:14;7.90;99.90
40996;DHT22;26723;57.478;12.066;2023-04-24T03:35:23;7.80;99.90
40996;DHT22;26723;57.478;12.066;2023-04-24T03:38:32;7.80;99.90
40996;DHT22;26723;57.478;12.066;2023-04-24T03:41:57;7.70;99.90
40996;DHT22;26723;57.478;12.066;2023-04-24T03:45:16;7.70;99.90
40996;DHT22;26723;57.478;12.066;2023-04-24T03:48:28;7.70;99.90
40996;DHT22;26723;57.478;12.066;2023-04-24T03:51:37;7.80;99.90
40996;DHT22;26723;57.478;12.066;2023-04-24T03:54:59;7.70;99.90
40996;DHT22;26723;57.478;12.066;2023-04-24T03:58:09;7.60;99.90
40996;DHT22;26723;57.478;12.066;2023-04-24T04:01:19;7.70;99.90
40996;DHT22;26723;57.478;12.066;2023-04-24T04:04:37;7.70;99.90
40996;DHT22;26723;57.478;12.066;2023-04-24T04:07:46;7.70;99.90
40996;DHT22;26723;57.478;12.066;2023-04-24T04:10:55;7.70;99.90
40996;DHT22;26723;57.478;12.066;2023-04-24T04:14:04;7.80;99.90
40996;DHT22;26723;57.478;12.066;2023-04-24T04:17:15;7.90;99.90
40996;DHT22;26723;57.478;12.066;2023-04-24T04:20:24;7.80;99.90
40996;DHT22;26723;57.478;12.066;2023-04-24T04:23:33;7.80;99.90
40996;DHT22;26723;57.478;12.066;2023-04-24T04:26:48;7.80;99.90
40996;DHT22;26723;57.478;12.066;2023-04-24T04:30:10;7.90;99.90
40996;DHT22;26723;57.478;12.066;2023-04-24T04:33:28;8.00;99.90
40996;DHT22;26723;57.478;12.066;2023-04-24T04:36:36;8.00;99.90
40996;DHT22;26723;57.478;12.066;2023-04-24T04:40:14;8.10;99.90
40996;DHT22;26723;57.478;12.066;2023-04-24T04:43:30;8.20;99.90
40996;DHT22;26723;57.478;12.066;2023-04-24T04:46:39;8.20;99.90
40996;DHT22;26723;57.478;12.066;2023-04-24T04:50:00;8.20;99.90
40996;DHT22;26723;57.478;12.066;2023-04-24T04:53:11;8.30;99.90
40996;DHT22;26723;57.478;12.066;2023-04-24T04:56:21;8.20;99.90
40996;DHT22;26723;57.478;12.066;2023-04-24T04:59:29;8.30;99.90
40996;DHT22;26723;57.478;12.066;2023-04-24T05:02:43;8.30;99.90
40996;DHT22;26723;57.478;12.066;2023-04-24T05:05:53;8.30;99.90
40996;DHT22;26723;57.478;12.066;2023-04-24T05:09:03;8.40;99.90
40996;DHT22;26723;57.478;12.066;2023-04-24T05:12:22;8.40;99.90
40996;DHT22;26723;57.478;12.066;2023-04-24T05:15:32;8.40;99.90
40996;DHT22;26723;57.478;12.066;2023-04-24T05:18:41;8.50;99.90
40996;DHT22;26723;57.478;12.066;2023-04-24T05:21:54;8.50;99.90
40996;DHT22;26723;57.478;12.066;2023-04-24T05:25:06;8.50;99.90
40996;DHT22;26723;57.478;12.066;2023-04-24T05:28:19;8.50;99.90
40996;DHT22;26723;57.478;12.066;2023-04-24T05:31:40;8.50;99.90
40996;DHT22;26723;57.478;12.066;2023-04-24T05:34:48;8.50;99.90
40996;DHT22;26723;57.478;12.066;2023-04-24T05:37:58;8.50;99.90
40996;DHT22;26723;57.478;12.066;2023-04-24T05:41:07;8.50;99.90
40996;DHT22;26723;57.478;12.066;2023-04-24T05:44:15;8.50;99.90
40996;DHT22;26723;57.478;12.066;2023-04-24T05:47:24;8.50;99.90
40996;DHT22;26723;57.478;12.066;2023-04-24T05:50:33;8.50;99.90
40996;DHT22;26723;57.478;12.066;2023-04-24T05:53:45;8.50;99.90
40996;DHT22;26723;57.478;12.066;2023-04-24T05:56:54;8.60;99.90
40996;DHT22;26723;57.478;12.066;2023-04-24T06:00:14;8.60;99.90
40996;DHT22;26723;57.478;12.066;2023-04-24T06:03:33;8.60;99.90
40996;DHT22;26723;57.478;12.066;2023-04-24T06:06:42;8.60;99.90
40996;DHT22;26723;57.478;12.066;2023-04-24T06:09:53;8.60;99.90
40996;DHT22;26723;57.478;12.066;2023-04-24T06:13:02;8.60;99.90
40996;DHT22;26723;57.478;12.066;2023-04-24T06:16:12;8.70;99.90
40996;DHT22;26723;57.478;12.066;2023-04-24T06:19:25;8.70;99.90
40996;DHT22;26723;57.478;12.066;2023-04-24T06:22:34;8.80;99.90
40996;DHT22;26723;57.478;12.066;2023-04-24T06:25:44;8.80;99.90
40996;DHT22;26723;57.478;12.066;2023-04-24T06:28:52;8.90;99.90
40996;DHT22;26723;57.478;12.066;2023-04-24T06:32:01;8.90;99.90
40996;DHT22;26723;57.478;12.066;2023-04-24T06:35:11;8.90;99.90
40996;DHT22;26723;57.478;12.066;2023-04-24T06:38:20;8.90;99.90
40996;DHT22;26723;57.478;12.066;2023-04-24T06:41:30;8.90;99.90
40996;DHT22;26723;57.478;12.066;2023-04-24T06:44:38;8.90;99.90
40996;DHT22;26723;57.478;12.066;2023-04-24T06:47:48;9.00;99.90
40996;DHT22;26723;57.478;12.066;2023-04-24T06:50:57;9.00;99.90
40996;DHT22;26723;57.478;12.066;2023-04-24T06:54:06;9.10;99.90
40996;DHT22;26723;57.478;12.066;2023-04-24T06:57:17;9.10;99.90
40996;DHT22;26723;57.478;12.066;2023-04-24T07:00:25;9.10;99.90
40996;DHT22;26723;57.478;12.066;2023-04-24T07:03:33;9.10;99.90
40996;DHT22;26723;57.478;12.066;2023-04-24T07:06:42;9.10;99.90
40996;DHT22;26723;57.478;12.066;2023-04-24T07:09:51;9.00;99.90
40996;DHT22;26723;57.478;12.066;2023-04-24T07:13:00;9.10;99.90
40996;DHT22;26723;57.478;12.066;2023-04-24T07:16:09;9.00;99.90
40996;DHT22;26723;57.478;12.066;2023-04-24T07:19:18;9.00;99.90
40996;DHT22;26723;57.478;12.066;2023-04-24T07:22:26;8.90;99.90
40996;DHT22;26723;57.478;12.066;2023-04-24T07:25:35;8.80;99.90
40996;DHT22;26723;57.478;12.066;2023-04-24T07:28:44;8.80;99.90
40996;DHT22;26723;57.478;12.066;2023-04-24T07:31:53;8.80;99.90
40996;DHT22;26723;57.478;12.066;2023-04-24T07:35:01;8.70;99.90
40996;DHT22;26723;57.478;12.066;2023-04-24T07:38:10;8.60;99.90
40996;DHT22;26723;57.478;12.066;2023-04-24T07:41:18;8.60;99.90
40996;DHT22;26723;57.478;12.066;2023-04-24T07:44:29;8.60;99.90
40996;DHT22;26723;57.478;12.066;2023-04-24T07:47:37;8.50;99.90
40996;DHT22;26723;57.478;12.066;2023-04-24T07:50:46;8.40;99.90
40996;DHT22;26723;57.478;12.066;2023-04-24T07:53:55;8.40;99.90
40996;DHT22;26723;57.478;12.066;2023-04-24T07:57:03;8.40;99.90
40996;DHT22;26723;57.478;12.066;2023-04-24T08:00:15;8.40;99.90
40996;DHT22;26723;57.478;12.066;2023-04-24T08:03:24;8.50;99.90
40996;DHT22;26723;57.478;12.066;2023-04-24T08:06:32;8.50;99.90
40996;DHT22;26723;57.478;12.066;2023-04-24T08:09:41;8.60;99.90
40996;DHT22;26723;57.478;12.066;2023-04-24T08:12:50;8.60;99.90
40996;DHT22;26723;57.478;12.066;2023-04-24T08:16:00;8.60;99.90
40996;DHT22;26723;57.478;12.066;2023-04-24T08:19:08;8.60;99.90
40996;DHT22;26723;57.478;12.066;2023-04-24T08:22:17;8.60;99.90
40996;DHT22;26723;57.478;12.066;2023-04-24T08:25:25;8.60;99.90
40996;DHT22;26723;57.478;12.066;2023-04-24T08:28:34;8.50;99.90
40996;DHT22;26723;57.478;12.066;2023-04-24T08:31:44;8.70;99.90
40996;DHT22;26723;57.478;12.066;2023-04-24T08:34:52;8.70;99.90
40996;DHT22;26723;57.478;12.066;2023-04-24T08:38:03;8.60;99.90
40996;DHT22;26723;57.478;12.066;2023-04-24T08:41:11;8.60;99.90
40996;DHT22;26723;57.478;12.066;2023-04-24T08:44:22;8.60;99.90
40996;DHT22;26723;57.478;12.066;2023-04-24T08:47:33;8.50;99.90
40996;DHT22;26723;57.478;12.066;2023-04-24T08:50:43;8.60;99.90
40996;DHT22;26723;57.478;12.066;2023-04-24T08:53:54;8.60;99.90
40996;DHT22;26723;57.478;12.066;2023-04-24T08:57:03;8.50;99.90
40996;DHT22;26723;57.478;12.066;2023-04-24T09:00:12;8.60;99.90
40996;DHT22;26723;57.478;12.066;2023-04-24T09:03:22;8.60;99.90
40996;DHT22;26723;57.478;12.066;2023-04-24T09:06:31;8.60;99.90
40996;DHT22;26723;57.478;12.066;2023-04-24T09:09:40;8.60;99.90
40996;DHT22;26723;57.478;12.066;2023-04-24T09:12:51;8.70;99.90
40996;DHT22;26723;57.478;12.066;2023-04-24T09:15:59;8.70;99.90
40996;DHT22;26723;57.478;12.066;2023-04-24T09:19:09;8.80;99.90
40996;DHT22;26723;57.478;12.066;2023-04-24T09:22:18;8.80;99.90
40996;DHT22;26723;57.478;12.066;2023-04-24T09:25:31;8.90;99.90
40996;DHT22;26723;57.478;12.066;2023-04-24T09:28:41;8.90;99.90
40996;DHT22;26723;57.478;12.066;2023-04-24T09:31:51;8.90;99.90
40996;DHT22;26723;57.478;12.066;2023-04-24T09:35:09;9.00;99.90
40996;DHT22;26723;57.478;12.066;2023-04-24T09:38:18;9.10;99.90
40996;DHT22;26723;57.478;12.066;2023-04-24T09:41:27;9.10;99.90
40996;DHT22;26723;57.478;12.066;2023-04-24T09:44:36;9.20;99.90
40996;DHT22;26723;57.478;12.066;2023-04-24T09:47:44;9.10;99.90
40996;DHT22;26723;57.478;12.066;2023-04-24T09:50:54;9.20;99.90
40996;DHT22;26723;57.478;12.066;2023-04-24T09:54:03;9.10;99.90
40996;DHT22;26723;57.478;12.066;2023-04-24T09:57:14;9.20;99.90
40996;DHT22;26723;57.478;12.066;2023-04-24T10:00:23;9.20;99.90
40996;DHT22;26723;57.478;12.066;2023-04-24T10:03:34;9.20;99.90
40996;DHT22;26723;57.478;12.066;2023-04-24T10:06:44;9.40;99.90
40996;DHT22;26723;57.478;12.066;2023-04-24T10:09:53;9.60;99.90
40996;DHT22;26723;57.478;12.066;2023-04-24T10:13:02;9.70;99.90
40996;DHT22;26723;57.478;12.066;2023-04-24T10:16:12;10.10;99.90
40996;DHT22;26723;57.478;12.066;2023-04-24T10:19:20;10.70;99.90
40996;DHT22;26723;57.478;12.066;2023-04-24T10:22:31;11.20;99.90
40996;DHT22;26723;57.478;12.066;2023-04-24T10:25:40;12.00;99.90
40996;DHT22;26723;57.478;12.066;2023-04-24T10:28:49;12.50;99.90
40996;DHT22;26723;57.478;12.066;2023-04-24T10:31:57;12.40;99.90
40996;DHT22;26723;57.478;12.066;2023-04-24T10:35:06;12.00;99.90
40996;DHT22;26723;57.478;12.066;2023-04-24T10:38:22;11.80;99.90
40996;DHT22;26723;57.478;12.066;2023-04-24T10:41:32;11.40;99.90
40996;DHT22;26723;57.478;12.066;2023-04-24T10:44:42;11.30;99.90
40996;DHT22;26723;57.478;12.066;2023-04-24T10:47:56;11.40;99.90
40996;DHT22;26723;57.478;12.066;2023-04-24T10:51:05;11.50;99.90
40996;DHT22;26723;57.478;12.066;2023-04-24T10:54:27;11.50;99.90
40996;DHT22;26723;57.478;12.066;2023-04-24T10:57:36;11.50;99.90
40996;DHT22;26723;57.478;12.066;2023-04-24T11:00:55;11.60;99.90
40996;DHT22;26723;57.478;12.066;2023-04-24T11:04:04;12.00;99.90
40996;DHT22;26723;57.478;12.066;2023-04-24T11:07:13;12.20;99.90
40996;DHT22;26723;57.478;12.066;2023-04-24T11:10:27;12.30;99.90
40996;DHT22;26723;57.478;12.066;2023-04-24T11:17:31;12.10;99.90
40996;DHT22;26723;57.478;12.066;2023-04-24T11:20:42;12.20;99.90
40996;DHT22;26723;57.478;12.066;2023-04-24T11:23:51;12.10;99.90
40996;DHT22;26723;57.478;12.066;2023-04-24T11:27:06;12.10;99.90
40996;DHT22;26723;57.478;12.066;2023-04-24T11:30:17;12.30;99.90
40996;DHT22;26723;57.478;12.066;2023-04-24T11:33:26;12.60;99.90
40996;DHT22;26723;57.478;12.066;2023-04-24T11:36:35;12.80;99.90
40996;DHT22;26723;57.478;12.066;2023-04-24T11:39:45;12.70;99.90
40996;DHT22;26723;57.478;12.066;2023-04-24T11:42:54;12.70;99.90
40996;DHT22;26723;57.478;12.066;2023-04-24T11:46:03;12.60;99.90
40996;DHT22;26723;57.478;12.066;2023-04-24T11:49:13;12.50;99.90
40996;DHT22;26723;57.478;12.066;2023-04-24T11:52:21;12.50;99.90
40996;DHT22;26723;57.478;12.066;2023-04-24T11:55:30;12.50;99.90
40996;DHT22;26723;57.478;12.066;2023-04-24T11:58:40;12.50;99.90
40996;DHT22;26723;57.478;12.066;2023-04-24T12:01:48;12.50;99.90
40996;DHT22;26723;57.478;12.066;2023-04-24T12:04:57;12.60;99.90
40996;DHT22;26723;57.478;12.066;2023-04-24T12:08:06;12.50;99.90
40996;DHT22;26723;57.478;12.066;2023-04-24T12:11:16;12.60;99.90
40996;DHT22;26723;57.478;12.066;2023-04-24T12:14:27;12.60;99.90
40996;DHT22;26723;57.478;12.066;2023-04-24T12:17:36;12.50;99.90
40996;DHT22;26723;57.478;12.066;2023-04-24T12:20:44;12.60;99.90
40996;DHT22;26723;57.478;12.066;2023-04-24T12:23:54;12.60;99.90
40996;DHT22;26723;57.478;12.066;2023-04-24T12:27:03;12.60;99.90
40996;DHT22;26723;57.478;12.066;2023-04-24T12:30:14;12.70;99.90
40996;DHT22;26723;57.478;12.066;2023-04-24T12:33:23;12.70;99.90
40996;DHT22;26723;57.478;12.066;2023-04-24T12:36:31;12.70;99.90
40996;DHT22;26723;57.478;12.066;2023-04-24T12:39:57;12.70;99.90
40996;DHT22;26723;57.478;12.066;2023-04-24T12:43:13;12.60;99.90
40996;DHT22;26723;57.478;12.066;2023-04-24T12:46:24;12.60;99.90
40996;DHT22;26723;57.478;12.066;2023-04-24T12:49:32;12.50;99.90
40996;DHT22;26723;57.478;12.066;2023-04-24T12:52:41;12.50;99.90
40996;DHT22;26723;57.478;12.066;2023-04-24T12:55:49;12.50;99.90
40996;DHT22;26723;57.478;12.066;2023-04-24T12:58:59;12.50;99.90
40996;DHT22;26723;57.478;12.066;2023-04-24T13:02:09;12.50;99.90
40996;DHT22;26723;57.478;12.066;2023-04-24T13:05:19;12.60;99.90
40996;DHT22;26723;57.478;12.066;2023-04-24T13:08:27;12.60;99.90
40996;DHT22;26723;57.478;12.066;2023-04-24T13:11:35;12.70;99.90
40996;DHT22;26723;57.478;12.066;2023-04-24T13:14:44;12.80;99.90
40996;DHT22;26723;57.478;12.066;2023-04-24T13:17:54;12.90;99.90
40996;DHT22;26723;57.478;12.066;2023-04-24T13:21:03;13.00;99.90
40996;DHT22;26723;57.478;12.066;2023-04-24T13:24:11;13.20;99.90
40996;DHT22;26723;57.478;12.066;2023-04-24T13:27:20;13.20;99.90
40996;DHT22;26723;57.478;12.066;2023-04-24T13:30:28;13.10;99.90
40996;DHT22;26723;57.478;12.066;2023-04-24T13:33:38;13.00;99.90
40996;DHT22;26723;57.478;12.066;2023-04-24T13:36:47;13.00;99.90
40996;DHT22;26723;57.478;12.066;2023-04-24T13:39:58;13.00;99.90
40996;DHT22;26723;57.478;12.066;2023-04-24T13:43:06;12.90;99.90
40996;DHT22;26723;57.478;12.066;2023-04-24T13:46:16;12.90;99.90
40996;DHT22;26723;57.478;12.066;2023-04-24T13:49:26;12.90;99.90
40996;DHT22;26723;57.478;12.066;2023-04-24T13:52:35;12.90;99.90
40996;DHT22;26723;57.478;12.066;2023-04-24T13:55:43;12.80;99.90
40996;DHT22;26723;57.478;12.066;2023-04-24T13:58:51;12.80;99.90
40996;DHT22;26723;57.478;12.066;2023-04-24T14:02:01;12.60;99.90
40996;DHT22;26723;57.478;12.066;2023-04-24T14:05:12;12.70;99.90
40996;DHT22;26723;57.478;12.066;2023-04-24T14:08:21;12.70;99.90
40996;DHT22;26723;57.478;12.066;2023-04-24T14:11:29;12.60;99.90
40996;DHT22;26723;57.478;12.066;2023-04-24T14:14:38;12.70;99.90
40996;DHT22;26723;57.478;12.066;2023-04-24T14:17:47;12.60;99.90
40996;DHT22;26723;57.478;12.066;2023-04-24T14:20:57;12.60;99.90
40996;DHT22;26723;57.478;12.066;2023-04-24T14:24:06;12.60;99.90
40996;DHT22;26723;57.478;12.066;2023-04-24T14:27:14;12.60;99.90
40996;DHT22;26723;57.478;12.066;2023-04-24T14:30:23;12.60;99.90
40996;DHT22;26723;57.478;12.066;2023-04-24T14:33:31;12.60;99.90
40996;DHT22;26723;57.478;12.066;2023-04-24T14:36:41;12.60;99.90
40996;DHT22;26723;57.478;12.066;2023-04-24T14:39:49;12.70;99.90
40996;DHT22;26723;57.478;12.066;2023-04-24T14:43:18;12.60;99.90
40996;DHT22;26723;57.478;12.066;2023-04-24T14:46:26;12.70;99.90
40996;DHT22;26723;57.478;12.066;2023-04-24T14:49:35;12.80;99.90
40996;DHT22;26723;57.478;12.066;2023-04-24T14:52:44;12.90;99.90
40996;DHT22;26723;57.478;12.066;2023-04-24T14:55:53;12.80;99.90
40996;DHT22;26723;57.478;12.066;2023-04-24T14:59:02;12.90;99.90
40996;DHT22;26723;57.478;12.066;2023-04-24T15:02:11;12.90;99.90
40996;DHT22;26723;57.478;12.066;2023-04-24T15:05:23;12.90;99.90
40996;DHT22;26723;57.478;12.066;2023-04-24T15:08:34;12.90;99.90
40996;DHT22;26723;57.478;12.066;2023-04-24T15:11:42;12.90;99.90
40996;DHT22;26723;57.478;12.066;2023-04-24T15:14:50;12.80;99.90
40996;DHT22;26723;57.478;12.066;2023-04-24T15:17:59;12.70;99.90
40996;DHT22;26723;57.478;12.066;2023-04-24T15:21:08;12.70;99.90
40996;DHT22;26723;57.478;12.066;2023-04-24T15:24:18;12.60;99.90
40996;DHT22;26723;57.478;12.066;2023-04-24T15:27:26;12.60;99.90
40996;DHT22;26723;57.478;12.066;2023-04-24T15:30:34;12.50;99.90
40996;DHT22;26723;57.478;12.066;2023-04-24T15:33:43;12.50;99.90
40996;DHT22;26723;57.478;12.066;2023-04-24T15:36:51;12.60;99.90
40996;DHT22;26723;57.478;12.066;2023-04-24T15:40:02;12.50;99.90
40996;DHT22;26723;57.478;12.066;2023-04-24T15:43:12;12.40;99.90
40996;DHT22;26723;57.478;12.066;2023-04-24T15:46:20;12.50;99.90
40996;DHT22;26723;57.478;12.066;2023-04-24T15:49:29;12.50;99.90
40996;DHT22;26723;57.478;12.066;2023-04-24T15:52:39;12.60;99.90
40996;DHT22;26723;57.478;12.066;2023-04-24T15:55:49;12.50;99.90
40996;DHT22;26723;57.478;12.066;2023-04-24T15:58:58;12.40;99.90
40996;DHT22;26723;57.478;12.066;2023-04-24T16:02:08;12.40;99.90
40996;DHT22;26723;57.478;12.066;2023-04-24T16:05:17;12.30;99.90
40996;DHT22;26723;57.478;12.066;2023-04-24T16:08:28;12.30;99.90
40996;DHT22;26723;57.478;12.066;2023-04-24T16:11:38;12.20;99.90
40996;DHT22;26723;57.478;12.066;2023-04-24T16:14:47;12.20;99.90
40996;DHT22;26723;57.478;12.066;2023-04-24T16:17:55;12.30;99.90
40996;DHT22;26723;57.478;12.066;2023-04-24T16:21:04;12.30;99.90
40996;DHT22;26723;57.478;12.066;2023-04-24T16:24:15;12.30;99.90
40996;DHT22;26723;57.478;12.066;2023-04-24T16:27:24;12.30;99.90
40996;DHT22;26723;57.478;12.066;2023-04-24T16:30:33;12.30;99.90
40996;DHT22;26723;57.478;12.066;2023-04-24T16:33:42;12.20;99.90
40996;DHT22;26723;57.478;12.066;2023-04-24T16:36:51;12.30;99.90
40996;DHT22;26723;57.478;12.066;2023-04-24T16:39:59;12.30;99.90
40996;DHT22;26723;57.478;12.066;2023-04-24T16:43:09;12.20;99.90
40996;DHT22;26723;57.478;12.066;2023-04-24T16:46:17;12.20;99.90
40996;DHT22;26723;57.478;12.066;2023-04-24T16:49:26;12.10;99.90
40996;DHT22;26723;57.478;12.066;2023-04-24T16:52:37;12.20;99.90
40996;DHT22;26723;57.478;12.066;2023-04-24T16:55:45;12.10;99.90
40996;DHT22;26723;57.478;12.066;2023-04-24T16:58:58;12.10;99.90
40996;DHT22;26723;57.478;12.066;2023-04-24T17:02:08;12.10;99.90
40996;DHT22;26723;57.478;12.066;2023-04-24T17:05:17;12.10;99.90
40996;DHT22;26723;57.478;12.066;2023-04-24T17:08:29;12.00;99.90
40996;DHT22;26723;57.478;12.066;2023-04-24T17:11:38;12.10;99.90
40996;DHT22;26723;57.478;12.066;2023-04-24T17:14:48;12.00;99.90
40996;DHT22;26723;57.478;12.066;2023-04-24T17:17:57;12.00;99.90
40996;DHT22;26723;57.478;12.066;2023-04-24T17:21:05;12.10;99.90
40996;DHT22;26723;57.478;12.066;2023-04-24T17:24:14;12.10;99.90
40996;DHT22;26723;57.478;12.066;2023-04-24T17:27:22;12.10;99.90
40996;DHT22;26723;57.478;12.066;2023-04-24T17:30:32;12.10;99.90
40996;DHT22;26723;57.478;12.066;2023-04-24T17:33:40;12.10;99.90
40996;DHT22;26723;57.478;12.066;2023-04-24T17:36:49;12.10;99.90
40996;DHT22;26723;57.478;12.066;2023-04-24T17:39:57;12.10;99.90
40996;DHT22;26723;57.478;12.066;2023-04-24T17:43:06;12.10;99.90
40996;DHT22;26723;57.478;12.066;2023-04-24T17:46:16;12.10;99.90
40996;DHT22;26723;57.478;12.066;2023-04-24T17:49:24;12.10;99.90
40996;DHT22;26723;57.478;12.066;2023-04-24T17:52:33;12.10;99.90
40996;DHT22;26723;57.478;12.066;2023-04-24T17:55:41;12.00;99.90
40996;DHT22;26723;57.478;12.066;2023-04-24T17:58:50;12.10;99.90
40996;DHT22;26723;57.478;12.066;2023-04-24T18:02:05;12.10;99.90
40996;DHT22;26723;57.478;12.066;2023-04-24T18:05:14;12.10;99.90
40996;DHT22;26723;57.478;12.066;2023-04-24T18:08:22;12.10;99.90
40996;DHT22;26723;57.478;12.066;2023-04-24T18:11:31;12.00;99.90
40996;DHT22;26723;57.478;12.066;2023-04-24T18:14:40;12.10;99.90
40996;DHT22;26723;57.478;12.066;2023-04-24T18:17:50;12.00;99.90
40996;DHT22;26723;57.478;12.066;2023-04-24T18:20:59;12.00;99.90
40996;DHT22;26723;57.478;12.066;2023-04-24T18:24:07;12.00;99.90
40996;DHT22;26723;57.478;12.066;2023-04-24T18:27:16;12.00;99.90
40996;DHT22;26723;57.478;12.066;2023-04-24T18:30:25;12.00;99.90
40996;DHT22;26723;57.478;12.066;2023-04-24T18:33:35;12.00;99.90
40996;DHT22;26723;57.478;12.066;2023-04-24T18:36:44;12.10;99.90
40996;DHT22;26723;57.478;12.066;2023-04-24T18:39:52;12.00;99.90
40996;DHT22;26723;57.478;12.066;2023-04-24T18:43:02;12.00;99.90
40996;DHT22;26723;57.478;12.066;2023-04-24T18:46:10;12.00;99.90
40996;DHT22;26723;57.478;12.066;2023-04-24T18:49:21;12.00;99.90
40996;DHT22;26723;57.478;12.066;2023-04-24T18:52:29;12.00;99.90
40996;DHT22;26723;57.478;12.066;2023-04-24T18:55:37;12.00;99.90
40996;DHT22;26723;57.478;12.066;2023-04-24T18:58:47;12.00;99.90
40996;DHT22;26723;57.478;12.066;2023-04-24T19:01:56;12.00;99.90
40996;DHT22;26723;57.478;12.066;2023-04-24T19:05:07;12.00;99.90
40996;DHT22;26723;57.478;12.066;2023-04-24T19:08:16;12.00;99.90
40996;DHT22;26723;57.478;12.066;2023-04-24T19:11:24;11.90;99.90
40996;DHT22;26723;57.478;12.066;2023-04-24T19:14:33;12.00;99.90
40996;DHT22;26723;57.478;12.066;2023-04-24T19:17:42;12.00;99.90
40996;DHT22;26723;57.478;12.066;2023-04-24T19:20:51;11.90;99.90
40996;DHT22;26723;57.478;12.066;2023-04-24T19:24:00;11.90;99.90
40996;DHT22;26723;57.478;12.066;2023-04-24T19:27:08;12.00;99.90
40996;DHT22;26723;57.478;12.066;2023-04-24T19:30:17;11.90;99.90
40996;DHT22;26723;57.478;12.066;2023-04-24T19:33:25;11.90;99.90
40996;DHT22;26723;57.478;12.066;2023-04-24T19:36:35;11.80;99.90
40996;DHT22;26723;57.478;12.066;2023-04-24T19:39:44;11.90;99.90
40996;DHT22;26723;57.478;12.066;2023-04-24T19:42:52;11.80;99.90
40996;DHT22;26723;57.478;12.066;2023-04-24T19:46:01;11.80;99.90
40996;DHT22;26723;57.478;12.066;2023-04-24T19:49:09;11.80;99.90
40996;DHT22;26723;57.478;12.066;2023-04-24T19:52:20;11.80;99.90